Time;durP1;ratioP1;P1;durP2;ratioP2;P2;SDS_P1;SDS_P2;PMS_P1;PMS_P2;Temp;Humidity;BMP_temperature;BMP_pressure;BME280_temperature;BME280_humidity;BME280_pressure;Samples;Min_cycle;Max_cycle;Signal;HPM_P1;HPM_P2
2023/04/17 00:02:09;;;;;;;;;;;;;;;;;;5050521;28;19978;-58
2023/04/17 00:04:35;;;;;;;;;;;;;;;;;;5050253;28;19980;-59
2023/04/17 00:07:02;;;;;;;;;;;;;;;;;;5049683;28;20011;-59
2023/04/17 00:09:28;;;;;;;;;;;;;;;;;;5050401;28;19927;-59
2023/04/17 00:11:54;;;;;;;;;;;;;;;;;;5050045;28;19924;-59
2023/04/17 00:14:20;;;;;;;;;;;;;;;;;;5048403;28;20540;-58
2023/04/17 00:16:46;;;;;;;;;;;;;;;;;;5050195;28;20015;-58
2023/04/17 00:19:12;;;;;;;;;;;;;;;;;;5049789;28;19925;-59
2023/04/17 00:21:38;;;;;;;;;;;;;;;;;;5049383;28;19925;-58
2023/04/17 00:24:04;;;;;;;;;;;;;;;;;;5049586;28;20299;-59
2023/04/17 00:26:31;;;;;;;;;;;;;;;;;;5049748;28;19931;-59
2023/04/17 00:28:57;;;;;;;;;;;;;;;;;;5049225;28;20148;-60
2023/04/17 00:31:23;;;;;;;;;;;;;;;;;;5049704;28;19951;-59
2023/04/17 00:33:49;;;;;;;;;;;;;;;;;;5049876;28;19924;-60
2023/04/17 00:36:15;;;;;;;;;;;;;;;;;;5048194;28;19974;-59
2023/04/17 00:38:41;;;;;;;;;;;;;;;;;;5050081;28;19924;-60
2023/04/17 00:41:07;;;;;;;;;;;;;;;;;;5049806;28;20398;-60
2023/04/17 00:43:32;;;;;;;;;;;;;;;;;;5049122;28;20336;-59
2023/04/17 00:45:58;;;;;;;;;;;;;;;;;;5049633;28;19976;-58
2023/04/17 00:48:24;;;;;;;;;;;;;;;;;;5049548;28;19924;-59
2023/04/17 00:50:50;;;;;;;;;;;;;;;;;;5049170;28;19925;-59
2023/04/17 00:53:16;;;;;;;;;;;;;;;;;;5049616;28;20287;-59
2023/04/17 00:55:42;;;;;;;;;;;;;;;;;;5049192;28;19924;-59
2023/04/17 00:58:08;;;;;;;;;;;;;;;;;;5049171;28;19971;-59
2023/04/17 01:00:34;;;;;;;;;;;;;;;;;;5049427;28;19932;-59
2023/04/17 01:03:00;;;;;;;;;;;;;;;;;;5049629;28;19925;-60
2023/04/17 01:05:26;;;;;;;;;;;;;;;;;;5048882;28;20100;-59
2023/04/17 01:07:52;;;;;;;;;;;;;;;;;;5049563;28;20411;-60
2023/04/17 01:10:18;;;;;;;;;;;;;;;;;;5049018;28;20449;-59
2023/04/17 01:12:47;;;;;;;;;;;;;;;;;;5049216;28;19928;-60
2023/04/17 01:15:13;;;;;;;;;;;;;;;;;;5049377;28;20029;-59
2023/04/17 01:17:39;;;;;;;;;;;;;;;;;;5049262;28;19987;-59
2023/04/17 01:20:06;;;;;;;;;;;;;;;;;;5048584;28;20065;-59
2023/04/17 01:22:32;;;;;;;;;;;;;;;;;;5049006;28;19978;-59
2023/04/17 01:24:58;;;;;;;;;;;;;;;;;;5049304;28;19925;-59
2023/04/17 01:27:24;;;;;;;;;;;;;;;;;;5048395;28;20338;-59
2023/04/17 01:29:50;;;;;;;;;;;;;;;;;;5049220;28;19976;-59
2023/04/17 01:32:16;;;;;;;;;;;;;;;;;;5048778;28;19928;-59
2023/04/17 01:34:42;;;;;;;;;;;;;;;;;;5048637;28;19920;-59
2023/04/17 01:37:07;;;;;;;;;;;;;;;;;;5049313;28;19921;-60
2023/04/17 01:39:33;;;;;;;;;;;;;;;;;;5049131;28;19962;-60
2023/04/17 01:41:59;;;;;;;;;;;;;;;;;;5048980;28;19931;-59
2023/04/17 01:44:25;;;;;;;;;;;;;;;;;;5049147;28;19983;-59
2023/04/17 01:46:51;;;;;;;;;;;;;;;;;;5048799;28;19939;-59
2023/04/17 01:49:17;;;;;;;;;;;;;;;;;;5049110;28;19921;-59
2023/04/17 01:51:43;;;;;;;;;;;;;;;;;;5048484;28;19951;-59
2023/04/17 01:54:09;;;;;;;;;;;;;;;;;;5049391;28;19964;-60
2023/04/17 01:56:35;;;;;;;;;;;;;;;;;;5049222;28;19979;-60
2023/04/17 01:59:01;;;;;;;;;;;;;;;;;;5048489;28;19932;-60
2023/04/17 02:01:27;;;;;;;;;;;;;;;;;;5047406;28;19947;-60
2023/04/17 02:03:52;;;;;;;;;;;;;;;;;;5048974;28;19928;-60
2023/04/17 02:06:18;;;;;;;;;;;;;;;;;;5048353;28;19921;-60
2023/04/17 02:08:44;;;;;;;;;;;;;;;;;;5051966;28;20310;-59
2023/04/17 02:11:12;;;;;;;;;;;;;;;;;;5052316;28;19929;-59
2023/04/17 02:13:38;;;;;;;;;;;;;;;;;;5051887;28;19928;-59
2023/04/17 02:16:04;;;;;;;;;;;;;;;;;;5052415;28;20287;-60
2023/04/17 02:18:30;;;;;;;;;;;;;;;;;;5052195;28;19927;-58
2023/04/17 02:20:56;;;;;;;;;;;;;;;;;;5051918;28;19921;-60
2023/04/17 02:23:21;;;;;;;;;;;;;;;;;;5052105;28;19929;-59
2023/04/17 02:25:47;;;;;;;;;;;;;;;;;;5051812;28;20421;-58
2023/04/17 02:28:13;;;;;;;;;;;;;;;;;;5051550;28;19924;-59
2023/04/17 02:30:39;;;;;;;;;;;;;;;;;;5052023;28;19933;-59
2023/04/17 02:33:06;;;;;;;;;;;;;;;;;;5052112;28;19920;-60
2023/04/17 02:35:31;;;;;;;;;;;;;;;;;;5051534;28;20286;-60
2023/04/17 02:37:57;;;;;;;;;;;;;;;;;;5052131;28;19970;-60
2023/04/17 02:40:23;;;;;;;;;;;;;;;;;;5051845;28;19920;-59
2023/04/17 02:42:49;;;;;;;;;;;;;;;;;;5051065;28;19932;-59
2023/04/17 02:45:15;;;;;;;;;;;;;;;;;;5051911;28;19921;-59
2023/04/17 02:47:41;;;;;;;;;;;;;;;;;;5051655;28;19921;-59
2023/04/17 02:50:08;;;;;;;;;;;;;;;;;;5051051;28;19927;-59
2023/04/17 02:52:33;;;;;;;;;;;;;;;;;;5051440;28;20243;-59
2023/04/17 02:54:59;;;;;;;;;;;;;;;;;;5051637;28;19928;-60
2023/04/17 02:57:25;;;;;;;;;;;;;;;;;;5051294;28;20397;-60
2023/04/17 02:59:51;;;;;;;;;;;;;;;;;;5051475;28;20035;-59
2023/04/17 03:02:20;;;;;;;;;;;;;;;;;;5051470;28;19920;-59
2023/04/17 03:04:47;;;;;;;;;;;;;;;;;;5050781;28;19925;-60
2023/04/17 03:07:16;;;;;;;;;;;;;;;;;;5049748;28;19959;-60
2023/04/17 03:09:44;;;;;;;;;;;;;;;;;;5051628;28;19929;-60
2023/04/17 03:12:13;;;;;;;;;;;;;;;;;;5050689;28;19936;-58
2023/04/17 03:14:39;;;;;;;;;;;;;;;;;;5051100;28;20154;-59
2023/04/17 03:17:05;;;;;;;;;;;;;;;;;;5051084;28;19920;-60
2023/04/17 03:19:31;;;;;;;;;;;;;;;;;;5050005;28;19927;-59
2023/04/17 03:21:57;;;;;;;;;;;;;;;;;;5050746;28;19924;-60
2023/04/17 03:24:23;;;;;;;;;;;;;;;;;;5051149;28;20332;-60
2023/04/17 03:26:49;;;;;;;;;;;;;;;;;;5050498;28;20295;-59
2023/04/17 03:29:15;;;;;;;;;;;;;;;;;;5051150;28;19921;-59
2023/04/17 03:31:41;;;;;;;;;;;;;;;;;;5050760;28;19937;-59
2023/04/17 03:34:06;;;;;;;;;;;;;;;;;;5050401;28;19920;-59
2023/04/17 03:36:35;;;;;;;;;;;;;;;;;;5049877;28;21199;-60
2023/04/17 03:39:01;;;;;;;;;;;;;;;;;;5050799;28;19925;-60
2023/04/17 03:41:26;;;;;;;;;;;;;;;;;;5050211;28;19946;-60
2023/04/17 03:43:52;;;;;;;;;;;;;;;;;;5050948;28;19921;-58
2023/04/17 03:46:18;;;;;;;;;;;;;;;;;;5050625;28;19991;-59
2023/04/17 03:48:44;;;;;;;;;;;;;;;;;;5049851;28;20022;-60
2023/04/17 03:51:10;;;;;;;;;;;;;;;;;;5050422;28;19929;-60
2023/04/17 03:53:36;;;;;;;;;;;;;;;;;;5050672;28;20383;-59
2023/04/17 03:56:02;;;;;;;;;;;;;;;;;;5049720;28;20015;-60
2023/04/17 03:58:28;;;;;;;;;;;;;;;;;;5050536;28;19925;-59
2023/04/17 04:00:54;;;;;;;;;;;;;;;;;;5050251;28;19920;-59
2023/04/17 04:03:20;;;;;;;;;;;;;;;;;;5049683;28;19987;-59
2023/04/17 04:05:46;;;;;;;;;;;;;;;;;;5050134;28;19925;-60
2023/04/17 04:08:12;;;;;;;;;;;;;;;;;;5050307;28;19924;-59
2023/04/17 04:10:38;;;;;;;;;;;;;;;;;;5049525;28;19936;-60
2023/04/17 04:13:04;;;;;;;;;;;;;;;;;;5050004;28;19985;-60
2023/04/17 04:15:30;;;;;;;;;;;;;;;;;;5050113;28;19929;-60
2023/04/17 04:17:55;;;;;;;;;;;;;;;;;;5049526;28;19944;-60
2023/04/17 04:20:21;;;;;;;;;;;;;;;;;;5049973;28;19921;-59
2023/04/17 04:22:47;;;;;;;;;;;;;;;;;;5049874;28;19943;-59
2023/04/17 04:25:15;;;;;;;;;;;;;;;;;;5049317;28;19959;-59
2023/04/17 04:27:48;;;;;;;;;;;;;;;;;;5049779;28;20385;-59
2023/04/17 04:30:14;;;;;;;;;;;;;;;;;;5049214;28;20363;-58
2023/04/17 04:32:40;;;;;;;;;;;;;;;;;;5049238;28;20365;-59
2023/04/17 04:35:06;;;;;;;;;;;;;;;;;;5049977;28;19920;-59
2023/04/17 04:37:32;;;;;;;;;;;;;;;;;;5048332;28;20345;-60
2023/04/17 04:40:01;;;;;;;;;;;;;;;;;;5049146;28;20439;-59
2023/04/17 04:42:27;;;;;;;;;;;;;;;;;;5049703;28;19920;-59
2023/04/17 04:44:53;;;;;;;;;;;;;;;;;;5050902;28;19924;-59
2023/04/17 04:47:19;;;;;;;;;;;;;;;;;;5050620;28;20848;-59
2023/04/17 04:49:46;;;;;;;;;;;;;;;;;;5051154;28;19920;-59
2023/04/17 04:52:12;;;;;;;;;;;;;;;;;;5050658;28;20019;-59
2023/04/17 04:54:38;;;;;;;;;;;;;;;;;;5050568;28;20008;-59
2023/04/17 04:57:03;;;;;;;;;;;;;;;;;;5051036;28;19921;-59
2023/04/17 04:59:29;;;;;;;;;;;;;;;;;;5050776;28;19929;-60
2023/04/17 05:01:55;;;;;;;;;;;;;;;;;;5049960;28;20067;-59
2023/04/17 05:04:21;;;;;;;;;;;;;;;;;;5051157;28;19970;-58
2023/04/17 05:06:47;;;;;;;;;;;;;;;;;;5050227;28;19925;-60
2023/04/17 05:09:13;;;;;;;;;;;;;;;;;;5050115;28;19924;-59
2023/04/17 05:11:39;;;;;;;;;;;;;;;;;;5050663;28;19929;-59
2023/04/17 05:14:05;;;;;;;;;;;;;;;;;;5051104;28;19925;-59
2023/04/17 05:16:31;;;;;;;;;;;;;;;;;;5050811;28;19986;-59
2023/04/17 05:18:57;;;;;;;;;;;;;;;;;;5050373;28;19975;-59
2023/04/17 05:21:23;;;;;;;;;;;;;;;;;;5049470;28;20382;-59
2023/04/17 05:23:49;;;;;;;;;;;;;;;;;;5050475;28;19936;-58
2023/04/17 05:26:15;;;;;;;;;;;;;;;;;;5050042;28;19925;-59
2023/04/17 05:28:43;;;;;;;;;;;;;;;;;;5050537;28;19927;-59
2023/04/17 05:31:10;;;;;;;;;;;;;;;;;;5050859;28;20513;-58
2023/04/17 05:33:36;;;;;;;;;;;;;;;;;;5050034;28;20011;-59
2023/04/17 05:36:02;;;;;;;;;;;;;;;;;;5050436;28;19931;-59
2023/04/17 05:38:28;;;;;;;;;;;;;;;;;;5050355;28;19921;-60
2023/04/17 05:40:54;;;;;;;;;;;;;;;;;;5049809;28;19921;-59
2023/04/17 05:43:20;;;;;;;;;;;;;;;;;;5053695;28;19924;-58
2023/04/17 05:45:46;;;;;;;;;;;;;;;;;;5054044;28;19928;-59
2023/04/17 05:48:12;;;;;;;;;;;;;;;;;;5053621;28;20468;-59
2023/04/17 05:50:40;;;;;;;;;;;;;;;;;;5054162;28;20310;-59
2023/04/17 05:53:06;;;;;;;;;;;;;;;;;;5054212;28;19925;-59
2023/04/17 05:55:32;;;;;;;;;;;;;;;;;;5053821;28;19925;-59
2023/04/17 05:57:58;;;;;;;;;;;;;;;;;;5053864;28;19925;-59
2023/04/17 06:00:24;;;;;;;;;;;;;;;;;;5054175;28;19921;-57
2023/04/17 06:02:51;;;;;;;;;;;;;;;;;;5053315;28;19924;-58
2023/04/17 06:05:16;;;;;;;;;;;;;;;;;;5053981;28;19928;-57
2023/04/17 06:07:43;;;;;;;;;;;;;;;;;;5052722;28;19921;-58
2023/04/17 06:10:09;;;;;;;;;;;;;;;;;;5053348;28;19924;-58
2023/04/17 06:12:35;;;;;;;;;;;;;;;;;;5054020;28;20323;-60
2023/04/17 06:15:01;;;;;;;;;;;;;;;;;;5053757;28;20027;-58
2023/04/17 06:17:27;;;;;;;;;;;;;;;;;;5053010;28;19921;-59
2023/04/17 06:19:53;;;;;;;;;;;;;;;;;;5053744;28;19995;-60
2023/04/17 06:22:18;;;;;;;;;;;;;;;;;;5053385;28;19928;-59
2023/04/17 06:24:44;;;;;;;;;;;;;;;;;;5053299;28;19924;-59
2023/04/17 06:27:10;;;;;;;;;;;;;;;;;;5053469;28;20126;-58
2023/04/17 06:29:36;;;;;;;;;;;;;;;;;;5053748;28;19980;-59
2023/04/17 06:32:02;;;;;;;;;;;;;;;;;;5052840;28;19975;-59
2023/04/17 06:34:28;;;;;;;;;;;;;;;;;;5053612;28;19920;-58
2023/04/17 06:36:54;;;;;;;;;;;;;;;;;;5053481;28;19928;-59
2023/04/17 06:39:21;;;;;;;;;;;;;;;;;;5052574;28;19968;-60
2023/04/17 06:41:49;;;;;;;;;;;;;;;;;;5053024;28;20043;-60
2023/04/17 06:44:15;;;;;;;;;;;;;;;;;;5051523;28;19924;-60
2023/04/17 06:46:41;;;;;;;;;;;;;;;;;;5052059;28;19928;-60
2023/04/17 06:49:07;;;;;;;;;;;;;;;;;;5049133;28;20263;-58
2023/04/17 06:51:32;;;;;;;;;;;;;;;;;;5042636;28;19998;-58
2023/04/17 06:53:58;;;;;;;;;;;;;;;;;;5050702;28;20024;-59
2023/04/17 06:56:25;;;;;;;;;;;;;;;;;;5052561;28;19924;-60
2023/04/17 06:58:51;;;;;;;;;;;;;;;;;;5052804;28;19924;-60
2023/04/17 07:01:17;;;;;;;;;;;;;;;;;;5050771;28;19972;-59
2023/04/17 07:03:42;;;;;;;;;;;;;;;;;;5049045;28;19953;-61
2023/04/17 07:06:08;;;;;;;;;;;;;;;;;;5050213;28;19951;-61
2023/04/17 07:08:34;;;;;;;;;;;;;;;;;;5050074;28;19931;-61
2023/04/17 07:11:00;;;;;;;;;;;;;;;;;;5054063;28;19947;-61
2023/04/17 07:13:30;;;;;;;;;;;;;;;;;;5050878;28;19925;-60
2023/04/17 07:15:56;;;;;;;;;;;;;;;;;;5048457;28;20458;-61
2023/04/17 07:18:22;;;;;;;;;;;;;;;;;;5051877;28;19960;-60
2023/04/17 07:20:48;;;;;;;;;;;;;;;;;;5051277;28;20336;-57
2023/04/17 07:23:14;;;;;;;;;;;;;;;;;;5049752;28;19925;-60
2023/04/17 07:25:40;;;;;;;;;;;;;;;;;;5050890;28;20051;-58
2023/04/17 07:28:06;;;;;;;;;;;;;;;;;;5047462;28;20019;-59
2023/04/17 07:30:32;;;;;;;;;;;;;;;;;;5048966;28;20036;-58
2023/04/17 07:32:58;;;;;;;;;;;;;;;;;;5048622;28;19966;-59
2023/04/17 07:35:23;;;;;;;;;;;;;;;;;;5049902;28;19944;-58
2023/04/17 07:37:50;;;;;;;;;;;;;;;;;;5045168;28;19964;-62
2023/04/17 07:40:16;;;;;;;;;;;;;;;;;;5046031;28;19925;-61
2023/04/17 07:42:42;;;;;;;;;;;;;;;;;;5049508;28;20015;-61
2023/04/17 07:45:09;;;;;;;;;;;;;;;;;;5049491;28;20019;-62
2023/04/17 07:47:35;;;;;;;;;;;;;;;;;;5048937;28;19927;-60
2023/04/17 07:50:01;;;;;;;;;;;;;;;;;;5049320;28;19927;-61
2023/04/17 07:52:27;;;;;;;;;;;;;;;;;;5047322;28;19994;-62
2023/04/17 07:54:53;;;;;;;;;;;;;;;;;;5051854;28;19952;-64
2023/04/17 07:57:20;;;;;;;;;;;;;;;;;;5048096;28;19929;-64
2023/04/17 07:59:46;;;;;;;;;;;;;;;;;;5008143;28;20310;-64
2023/04/17 08:02:12;;;;;;;;;;;;;;;;;;5040110;28;19935;-65
2023/04/17 08:04:38;;;;;;;;;;;;;;;;;;5040239;28;19951;-64
2023/04/17 08:07:05;;;;;;;;;;;;;;;;;;5031125;28;20047;-64
2023/04/17 08:09:32;;;;;;;;;;;;;;;;;;5044243;28;19925;-64
2023/04/17 08:11:57;;;;;;;;;;;;;;;;;;5044582;28;19933;-64
2023/04/17 08:14:23;;;;;;;;;;;;;;;;;;5039617;28;20424;-63
2023/04/17 08:16:50;;;;;;;;;;;;;;;;;;5041748;28;19964;-64
2023/04/17 08:19:16;;;;;;;;;;;;;;;;;;5045155;28;20261;-63
2023/04/17 08:21:42;;;;;;;;;;;;;;;;;;5043748;28;19936;-64
2023/04/17 08:24:08;;;;;;;;;;;;;;;;;;5038661;28;20039;-64
2023/04/17 08:26:34;;;;;;;;;;;;;;;;;;5048765;28;19925;-65
2023/04/17 08:29:03;;;;;;;;;;;;;;;;;;5045305;28;19935;-65
2023/04/17 08:31:29;;;;;;;;;;;;;;;;;;5043196;28;19933;-63
2023/04/17 08:33:56;;;;;;;;;;;;;;;;;;5041966;28;20259;-64
2023/04/17 08:36:25;;;;;;;;;;;;;;;;;;5049047;28;20291;-64
2023/04/17 08:38:51;;;;;;;;;;;;;;;;;;5048785;28;19921;-64
2023/04/17 08:41:17;;;;;;;;;;;;;;;;;;5046027;28;19925;-64
2023/04/17 08:43:43;;;;;;;;;;;;;;;;;;5048480;28;19955;-64
2023/04/17 08:46:11;;;;;;;;;;;;;;;;;;5044261;28;20043;-63
2023/04/17 08:48:37;;;;;;;;;;;;;;;;;;5046166;28;20047;-63
2023/04/17 08:51:03;;;;;;;;;;;;;;;;;;5048166;28;19999;-62
2023/04/17 08:53:29;;;;;;;;;;;;;;;;;;5043311;28;20364;-64
2023/04/17 08:55:55;;;;;;;;;;;;;;;;;;5038416;28;19954;-65
2023/04/17 08:58:24;;;;;;;;;;;;;;;;;;5024674;28;19921;-65
2023/04/17 09:00:50;;;;;;;;;;;;;;;;;;5034225;28;20367;-65
2023/04/17 09:03:16;;;;;;;;;;;;;;;;;;5049310;28;19924;-64
2023/04/17 09:05:44;;;;;;;;;;;;;;;;;;5043900;28;19925;-64
2023/04/17 09:08:11;;;;;;;;;;;;;;;;;;5048660;28;19936;-65
2023/04/17 09:10:37;;;;;;;;;;;;;;;;;;5048814;28;19948;-64
2023/04/17 09:13:03;;;;;;;;;;;;;;;;;;5044487;28;20024;-62
2023/04/17 09:15:29;;;;;;;;;;;;;;;;;;5046397;28;20407;-63
2023/04/17 09:17:55;;;;;;;;;;;;;;;;;;5049872;28;19982;-63
2023/04/17 09:20:21;;;;;;;;;;;;;;;;;;5051501;28;20461;-65
2023/04/17 09:22:47;;;;;;;;;;;;;;;;;;5052235;28;19936;-64
2023/04/17 09:25:13;;;;;;;;;;;;;;;;;;5017798;28;19936;-65
2023/04/17 09:27:39;;;;;;;;;;;;;;;;;;5047946;28;19925;-63
2023/04/17 09:30:05;;;;;;;;;;;;;;;;;;5051608;28;19931;-63
2023/04/17 09:32:31;;;;;;;;;;;;;;;;;;5047914;28;19932;-63
2023/04/17 09:34:58;;;;;;;;;;;;;;;;;;5045282;28;20604;-63
2023/04/17 09:37:24;;;;;;;;;;;;;;;;;;5050805;28;20367;-64
2023/04/17 09:39:50;;;;;;;;;;;;;;;;;;5052806;28;20294;-64
2023/04/17 09:42:16;;;;;;;;;;;;;;;;;;5051828;28;19971;-64
2023/04/17 09:44:42;;;;;;;;;;;;;;;;;;5047309;28;19948;-64
2023/04/17 09:47:08;;;;;;;;;;;;;;;;;;5052672;28;19921;-64
2023/04/17 09:49:34;;;;;;;;;;;;;;;;;;5052287;28;19947;-64
2023/04/17 09:52:00;;;;;;;;;;;;;;;;;;5048992;28;20389;-64
2023/04/17 09:54:30;;;;;;;;;;;;;;;;;;5052679;28;20386;-64
2023/04/17 09:56:56;;;;;;;;;;;;;;;;;;5056624;28;20322;-63
2023/04/17 09:59:23;;;;;;;;;;;;;;;;;;5051694;28;19948;-64
2023/04/17 10:01:49;;;;;;;;;;;;;;;;;;5051698;28;19952;-64
2023/04/17 10:04:15;;;;;;;;;;;;;;;;;;5052201;28;20711;-64
2023/04/17 10:06:41;;;;;;;;;;;;;;;;;;5047033;28;19925;-64
2023/04/17 10:09:07;;;;;;;;;;;;;;;;;;5051175;28;19924;-64
2023/04/17 10:11:33;;;;;;;;;;;;;;;;;;5046852;28;19928;-63
2023/04/17 10:14:00;;;;;;;;;;;;;;;;;;5049062;28;19955;-63
2023/04/17 10:16:26;;;;;;;;;;;;;;;;;;5042965;28;19939;-63
2023/04/17 10:18:51;;;;;;;;;;;;;;;;;;5050220;28;20469;-62
2023/04/17 10:21:21;;;;;;;;;;;;;;;;;;5081719;28;20110;-63
2023/04/17 10:23:47;;;;;;;;;;;;;;;;;;5054181;28;19929;-64
2023/04/17 10:26:13;;;;;;;;;;;;;;;;;;5046334;28;20332;-63
2023/04/17 10:28:39;;;;;;;;;;;;;;;;;;5047419;28;19924;-63
2023/04/17 10:31:05;;;;;;;;;;;;;;;;;;5051670;28;20346;-64
2023/04/17 10:33:31;;;;;;;;;;;;;;;;;;5051653;28;20036;-64
2023/04/17 10:35:57;;;;;;;;;;;;;;;;;;5050182;28;19929;-64
2023/04/17 10:38:23;;;;;;;;;;;;;;;;;;5051615;28;19970;-64
2023/04/17 10:40:49;;;;;;;;;;;;;;;;;;5049266;28;19931;-63
2023/04/17 10:43:22;;;;;;;;;;;;;;;;;;5037350;28;19964;-65
2023/04/17 10:45:48;;;;;;;;;;;;;;;;;;5043786;28;20370;-64
2023/04/17 10:48:14;;;;;;;;;;;;;;;;;;5047142;28;19931;-64
2023/04/17 10:50:39;;;;;;;;;;;;;;;;;;5049365;28;19928;-64
2023/04/17 10:53:05;;;;;;;;;;;;;;;;;;5044947;28;19940;-62
2023/04/17 10:55:31;;;;;;;;;;;;;;;;;;5047009;28;19999;-63
2023/04/17 10:57:57;;;;;;;;;;;;;;;;;;5048209;28;19969;-64
2023/04/17 11:00:23;;;;;;;;;;;;;;;;;;5049470;28;19937;-64
2023/04/17 11:02:50;;;;;;;;;;;;;;;;;;5051125;28;20425;-63
2023/04/17 11:05:16;;;;;;;;;;;;;;;;;;5049065;28;19920;-65
2023/04/17 11:07:43;;;;;;;;;;;;;;;;;;5050519;28;20378;-65
2023/04/17 11:10:09;;;;;;;;;;;;;;;;;;5052243;28;19960;-64
2023/04/17 11:12:35;;;;;;;;;;;;;;;;;;5049163;28;19929;-64
2023/04/17 11:15:01;;;;;;;;;;;;;;;;;;5049060;28;20338;-65
2023/04/17 11:17:27;;;;;;;;;;;;;;;;;;5048616;28;19932;-65
2023/04/17 11:19:53;;;;;;;;;;;;;;;;;;5049928;28;19925;-65
2023/04/17 11:22:19;;;;;;;;;;;;;;;;;;5046799;28;19982;-65
2023/04/17 11:24:45;;;;;;;;;;;;;;;;;;5049879;28;19955;-65
2023/04/17 11:27:11;;;;;;;;;;;;;;;;;;5046187;28;19921;-65
2023/04/17 11:29:37;;;;;;;;;;;;;;;;;;5044197;28;19924;-65
2023/04/17 11:32:03;;;;;;;;;;;;;;;;;;5047542;28;19924;-64
2023/04/17 11:34:29;;;;;;;;;;;;;;;;;;5045915;28;20041;-64
2023/04/17 11:36:55;;;;;;;;;;;;;;;;;;5045335;28;19924;-65
2023/04/17 11:39:21;;;;;;;;;;;;;;;;;;5050805;28;19959;-65
2023/04/17 11:41:48;;;;;;;;;;;;;;;;;;5050848;28;19964;-65
2023/04/17 11:44:14;;;;;;;;;;;;;;;;;;5051457;28;20390;-65
2023/04/17 11:46:40;;;;;;;;;;;;;;;;;;5050984;28;20404;-64
2023/04/17 11:49:06;;;;;;;;;;;;;;;;;;5050790;28;19925;-64
2023/04/17 11:51:32;;;;;;;;;;;;;;;;;;5050685;28;19968;-65
2023/04/17 11:53:58;;;;;;;;;;;;;;;;;;5050899;28;19924;-65
2023/04/17 11:56:27;;;;;;;;;;;;;;;;;;5050341;28;19920;-65
2023/04/17 11:58:53;;;;;;;;;;;;;;;;;;5051369;28;20627;-65
2023/04/17 12:01:19;;;;;;;;;;;;;;;;;;5050219;28;19966;-65
2023/04/17 12:03:46;;;;;;;;;;;;;;;;;;5050889;28;19925;-65
2023/04/17 12:06:12;;;;;;;;;;;;;;;;;;5050621;28;19940;-65
2023/04/17 12:08:38;;;;;;;;;;;;;;;;;;5049941;28;19924;-64
2023/04/17 12:11:04;;;;;;;;;;;;;;;;;;5046512;28;19964;-64
2023/04/17 12:13:31;;;;;;;;;;;;;;;;;;5051106;28;19928;-64
2023/04/17 12:15:57;;;;;;;;;;;;;;;;;;5043930;28;20620;-64
2023/04/17 12:18:23;;;;;;;;;;;;;;;;;;5043470;28;19975;-64
2023/04/17 12:20:49;;;;;;;;;;;;;;;;;;5049475;28;19982;-63
2023/04/17 12:23:15;;;;;;;;;;;;;;;;;;5050244;28;20324;-63
2023/04/17 12:25:41;;;;;;;;;;;;;;;;;;5049126;28;19967;-65
2023/04/17 12:28:07;;;;;;;;;;;;;;;;;;5048992;28;19929;-65
2023/04/17 12:30:34;;;;;;;;;;;;;;;;;;5049318;28;19924;-66
2023/04/17 12:33:00;;;;;;;;;;;;;;;;;;5050316;28;19932;-64
2023/04/17 12:35:26;;;;;;;;;;;;;;;;;;5049757;28;20464;-65
2023/04/17 12:37:52;;;;;;;;;;;;;;;;;;5048524;28;19925;-64
2023/04/17 12:40:18;;;;;;;;;;;;;;;;;;5050429;28;19924;-65
2023/04/17 12:42:45;;;;;;;;;;;;;;;;;;5049778;28;20015;-64
2023/04/17 12:45:11;;;;;;;;;;;;;;;;;;5049661;28;20010;-64
2023/04/17 12:47:37;;;;;;;;;;;;;;;;;;5050233;28;19968;-64
2023/04/17 12:50:04;;;;;;;;;;;;;;;;;;5037770;28;19931;-64
2023/04/17 12:52:30;;;;;;;;;;;;;;;;;;5047509;28;20421;-63
2023/04/17 12:54:59;;;;;;;;;;;;;;;;;;5050537;28;19925;-63
2023/04/17 12:57:25;;;;;;;;;;;;;;;;;;5048760;28;19921;-63
2023/04/17 12:59:51;;;;;;;;;;;;;;;;;;5044872;28;19948;-64
2023/04/17 13:02:19;;;;;;;;;;;;;;;;;;5048857;28;19948;-64
2023/04/17 13:04:46;;;;;;;;;;;;;;;;;;5050128;28;19921;-65
2023/04/17 13:07:12;;;;;;;;;;;;;;;;;;5048652;28;19989;-63
2023/04/17 13:09:38;;;;;;;;;;;;;;;;;;5041728;28;19932;-63
2023/04/17 13:12:04;;;;;;;;;;;;;;;;;;5048478;28;19925;-64
2023/04/17 13:14:30;;;;;;;;;;;;;;;;;;5052561;28;20119;-64
2023/04/17 13:16:56;;;;;;;;;;;;;;;;;;5047529;28;19921;-65
2023/04/17 13:19:22;;;;;;;;;;;;;;;;;;5049600;28;20010;-64
2023/04/17 13:21:48;;;;;;;;;;;;;;;;;;5046533;28;19943;-64
2023/04/17 13:24:14;;;;;;;;;;;;;;;;;;5051738;28;20011;-64
2023/04/17 13:26:41;;;;;;;;;;;;;;;;;;5046783;28;20330;-61
2023/04/17 13:29:07;;;;;;;;;;;;;;;;;;5051275;28;19921;-62
2023/04/17 13:31:33;;;;;;;;;;;;;;;;;;5050466;28;19977;-62
2023/04/17 13:33:59;;;;;;;;;;;;;;;;;;5049990;28;19971;-62
2023/04/17 13:36:25;;;;;;;;;;;;;;;;;;5050551;28;19927;-62
2023/04/17 13:38:51;;;;;;;;;;;;;;;;;;5050700;28;19925;-62
2023/04/17 13:41:17;;;;;;;;;;;;;;;;;;5050150;28;20003;-62
2023/04/17 13:43:43;;;;;;;;;;;;;;;;;;5050739;28;19920;-62
2023/04/17 13:46:11;;;;;;;;;;;;;;;;;;5050024;28;20007;-62
2023/04/17 13:48:36;;;;;;;;;;;;;;;;;;5050004;28;19924;-62
2023/04/17 13:51:02;;;;;;;;;;;;;;;;;;5050553;28;19925;-62
2023/04/17 13:53:28;;;;;;;;;;;;;;;;;;5050163;28;19921;-62
2023/04/17 13:55:54;;;;;;;;;;;;;;;;;;5049185;28;19970;-62
2023/04/17 13:58:20;;;;;;;;;;;;;;;;;;5049607;28;19928;-62
2023/04/17 14:00:47;;;;;;;;;;;;;;;;;;5049084;28;19921;-62
2023/04/17 14:03:13;;;;;;;;;;;;;;;;;;5049605;28;19920;-61
2023/04/17 14:05:39;;;;;;;;;;;;;;;;;;5052434;28;20271;-61
2023/04/17 14:08:05;;;;;;;;;;;;;;;;;;5052676;28;20421;-62
2023/04/17 14:10:31;;;;;;;;;;;;;;;;;;5050738;28;19975;-62
2023/04/17 14:12:56;;;;;;;;;;;;;;;;;;5052556;28;19925;-62
2023/04/17 14:15:22;;;;;;;;;;;;;;;;;;5053655;28;20262;-62
2023/04/17 14:17:48;;;;;;;;;;;;;;;;;;5053039;28;19928;-61
2023/04/17 14:20:16;;;;;;;;;;;;;;;;;;5053695;28;19956;-61
2023/04/17 14:22:42;;;;;;;;;;;;;;;;;;5053534;28;19978;-62
2023/04/17 14:25:08;;;;;;;;;;;;;;;;;;5052701;28;19925;-62
2023/04/17 14:27:35;;;;;;;;;;;;;;;;;;5053594;28;20334;-62
2023/04/17 14:30:01;;;;;;;;;;;;;;;;;;5046120;28;20334;-62
2023/04/17 14:32:27;;;;;;;;;;;;;;;;;;5052126;28;19931;-62
2023/04/17 14:34:54;;;;;;;;;;;;;;;;;;5052477;28;19982;-62
2023/04/17 14:37:20;;;;;;;;;;;;;;;;;;5052738;28;20807;-62
2023/04/17 14:39:46;;;;;;;;;;;;;;;;;;5052232;28;20016;-62
2023/04/17 14:42:12;;;;;;;;;;;;;;;;;;5052798;28;19936;-62
2023/04/17 14:44:38;;;;;;;;;;;;;;;;;;5053106;28;19929;-62
2023/04/17 14:47:04;;;;;;;;;;;;;;;;;;5052072;28;19947;-62
2023/04/17 14:49:30;;;;;;;;;;;;;;;;;;5037325;28;19929;-62
2023/04/17 14:51:56;;;;;;;;;;;;;;;;;;5032980;28;20016;-62
2023/04/17 14:54:22;;;;;;;;;;;;;;;;;;5032639;28;19924;-62
2023/04/17 14:56:49;;;;;;;;;;;;;;;;;;5032651;28;19925;-62
2023/04/17 14:59:15;;;;;;;;;;;;;;;;;;5032751;28;19951;-62
2023/04/17 15:01:41;;;;;;;;;;;;;;;;;;5032245;28;19929;-62
2023/04/17 15:04:07;;;;;;;;;;;;;;;;;;5033173;28;19952;-62
2023/04/17 15:06:32;;;;;;;;;;;;;;;;;;5032126;28;19984;-62
2023/04/17 15:08:58;;;;;;;;;;;;;;;;;;5030876;28;19925;-62
2023/04/17 15:11:24;;;;;;;;;;;;;;;;;;5031422;28;20018;-62
2023/04/17 15:13:50;;;;;;;;;;;;;;;;;;5031311;28;19955;-62
2023/04/17 15:16:16;;;;;;;;;;;;;;;;;;5030249;28;19925;-62
2023/04/17 15:18:42;;;;;;;;;;;;;;;;;;5031334;28;19925;-62
2023/04/17 15:21:08;;;;;;;;;;;;;;;;;;5031212;28;19925;-62
2023/04/17 15:23:34;;;;;;;;;;;;;;;;;;5030247;28;19927;-62
2023/04/17 15:26:00;;;;;;;;;;;;;;;;;;5039813;28;19964;-62
2023/04/17 15:28:26;;;;;;;;;;;;;;;;;;5050898;28;20007;-62
2023/04/17 15:30:52;;;;;;;;;;;;;;;;;;5050244;28;20424;-62
2023/04/17 15:33:17;;;;;;;;;;;;;;;;;;5050745;28;19995;-62
2023/04/17 15:35:43;;;;;;;;;;;;;;;;;;5050782;28;19925;-62
2023/04/17 15:38:09;;;;;;;;;;;;;;;;;;5050565;28;20306;-62
2023/04/17 15:40:35;;;;;;;;;;;;;;;;;;5050459;28;20584;-62
2023/04/17 15:43:01;;;;;;;;;;;;;;;;;;5050976;28;19921;-62
2023/04/17 15:45:27;;;;;;;;;;;;;;;;;;5050717;28;19924;-62
2023/04/17 15:47:53;;;;;;;;;;;;;;;;;;5050089;28;19932;-62
2023/04/17 15:50:19;;;;;;;;;;;;;;;;;;5050529;28;20015;-62
2023/04/17 15:52:45;;;;;;;;;;;;;;;;;;5050596;28;20524;-62
2023/04/17 15:55:12;;;;;;;;;;;;;;;;;;5049902;28;19921;-62
2023/04/17 15:57:38;;;;;;;;;;;;;;;;;;5050292;28;20064;-62
2023/04/17 16:00:05;;;;;;;;;;;;;;;;;;5050025;28;19924;-62
2023/04/17 16:02:31;;;;;;;;;;;;;;;;;;5049790;28;19975;-62
2023/04/17 16:04:56;;;;;;;;;;;;;;;;;;5050294;28;19924;-62
2023/04/17 16:07:22;;;;;;;;;;;;;;;;;;5049989;28;19943;-62
2023/04/17 16:09:49;;;;;;;;;;;;;;;;;;5049793;28;20419;-62
2023/04/17 16:12:15;;;;;;;;;;;;;;;;;;5050115;28;20406;-62
2023/04/17 16:14:41;;;;;;;;;;;;;;;;;;5050045;28;19925;-62
2023/04/17 16:17:07;;;;;;;;;;;;;;;;;;5049430;28;19921;-62
2023/04/17 16:19:34;;;;;;;;;;;;;;;;;;5050203;28;19920;-62
2023/04/17 16:22:00;;;;;;;;;;;;;;;;;;5049646;28;20000;-62
2023/04/17 16:24:26;;;;;;;;;;;;;;;;;;5049299;28;19936;-62
2023/04/17 16:26:51;;;;;;;;;;;;;;;;;;5049401;28;19925;-62
2023/04/17 16:29:17;;;;;;;;;;;;;;;;;;5049458;28;19966;-62
2023/04/17 16:31:43;;;;;;;;;;;;;;;;;;5048899;28;19925;-62
2023/04/17 16:34:11;;;;;;;;;;;;;;;;;;5049727;28;19947;-62
2023/04/17 16:36:37;;;;;;;;;;;;;;;;;;5049781;28;19928;-62
2023/04/17 16:39:03;;;;;;;;;;;;;;;;;;5049061;28;20302;-62